createdAt,value
2022-07-27T00:00:05.646Z,54.70
2022-07-27T00:00:44.243Z,54.96
2022-07-27T00:01:20.595Z,55.38
2022-07-27T00:01:52.871Z,55.75
2022-07-27T00:02:25.033Z,55.12
2022-07-27T00:03:00.112Z,55.50
2022-07-27T00:03:32.290Z,54.81
2022-07-27T00:04:04.612Z,55.33
2022-07-27T00:04:39.472Z,55.69
2022-07-27T00:05:11.754Z,55.79
2022-07-27T00:05:44.127Z,56.13
2022-07-27T00:06:19.161Z,55.95
2022-07-27T00:06:51.351Z,56.27
2022-07-27T00:07:23.503Z,56.17
2022-07-27T00:07:58.321Z,56.85
2022-07-27T00:08:30.503Z,56.51
2022-07-27T00:09:08.082Z,55.94
2022-07-27T00:09:40.282Z,55.76
2022-07-27T00:10:12.499Z,55.94
2022-07-27T00:10:44.665Z,55.64
2022-07-27T00:11:19.531Z,55.54
2022-07-27T00:11:51.818Z,55.52
2022-07-27T00:12:24.123Z,55.46
2022-07-27T00:12:58.901Z,55.26
2022-07-27T00:13:31.536Z,55.65
2022-07-27T00:14:03.889Z,55.91
2022-07-27T00:14:38.667Z,56.11
2022-07-27T00:15:11.584Z,56.53
2022-07-27T00:15:43.929Z,56.34
2022-07-27T00:16:18.928Z,57.14
2022-07-27T00:16:51.260Z,56.69
2022-07-27T00:17:24.070Z,56.54
2022-07-27T00:18:01.162Z,57.01
2022-07-27T00:18:33.665Z,56.76
2022-07-27T00:19:09.644Z,56.95
2022-07-27T00:19:42.264Z,56.96
2022-07-27T00:20:14.795Z,57.08
2022-07-27T00:20:49.727Z,56.99
2022-07-27T00:21:22.141Z,56.37
2022-07-27T00:21:58.657Z,56.37
2022-07-27T00:22:32.301Z,56.63
2022-07-27T00:23:04.452Z,56.59
2022-07-27T00:23:39.206Z,56.46
2022-07-27T00:24:13.964Z,56.33
2022-07-27T00:24:48.810Z,56.28
2022-07-27T00:25:21.159Z,56.05
2022-07-27T00:25:53.346Z,55.46
2022-07-27T00:26:28.126Z,55.09
2022-07-27T00:27:00.326Z,55.20
2022-07-27T00:27:32.613Z,54.92
2022-07-27T00:28:07.945Z,54.82
2022-07-27T00:28:40.130Z,54.52
2022-07-27T00:29:15.437Z,54.59
2022-07-27T00:29:47.721Z,54.60
2022-07-27T00:30:20.044Z,54.14
2022-07-27T00:30:54.933Z,54.32
2022-07-27T00:31:27.097Z,54.25
2022-07-27T00:31:59.491Z,54.18
2022-07-27T00:32:31.795Z,54.13
2022-07-27T00:33:06.607Z,54.14
2022-07-27T00:33:38.933Z,54.54
2022-07-27T00:34:11.089Z,54.50
2022-07-27T00:34:45.854Z,54.45
2022-07-27T00:35:18.227Z,54.23
2022-07-27T00:35:50.386Z,54.48
2022-07-27T00:36:25.219Z,54.41
2022-07-27T00:36:57.360Z,54.28
2022-07-27T00:37:29.578Z,54.59
2022-07-27T00:38:04.348Z,54.45
2022-07-27T00:38:36.759Z,54.37
2022-07-27T00:39:09.309Z,54.47
2022-07-27T00:39:47.060Z,54.59
2022-07-27T00:40:19.327Z,54.74
2022-07-27T00:40:51.515Z,54.55
2022-07-27T00:41:26.368Z,55.04
2022-07-27T00:41:58.487Z,54.85
2022-07-27T00:42:31.391Z,54.66
2022-07-27T00:43:06.468Z,54.72
2022-07-27T00:43:54.906Z,54.44
2022-07-27T00:44:31.134Z,54.86
2022-07-27T00:45:04.273Z,54.66
2022-07-27T00:45:36.624Z,54.67
2022-07-27T00:46:11.434Z,54.63
2022-07-27T00:46:43.727Z,54.70
2022-07-27T00:47:15.950Z,54.77
2022-07-27T00:47:54.657Z,54.47
2022-07-27T00:48:29.359Z,54.49
2022-07-27T00:49:04.231Z,55.03
2022-07-27T00:49:36.438Z,55.00
2022-07-27T00:50:09.651Z,54.88
2022-07-27T00:50:45.635Z,54.97
2022-07-27T00:51:19.770Z,54.97
2022-07-27T00:51:52.170Z,55.24
2022-07-27T00:52:27.805Z,55.26
2022-07-27T00:53:00.313Z,55.14
2022-07-27T00:53:32.542Z,55.32
2022-07-27T00:54:07.283Z,54.88
2022-07-27T00:54:40.421Z,54.87
2022-07-27T00:55:16.029Z,54.92
2022-07-27T00:55:50.794Z,54.71
2022-07-27T00:56:23.325Z,54.90
2022-07-27T00:56:55.659Z,54.52
2022-07-27T00:57:30.695Z,54.68
2022-07-27T00:58:05.079Z,55.04
2022-07-27T00:58:38.822Z,55.14
2022-07-27T00:59:15.205Z,54.79
2022-07-27T00:59:47.485Z,55.22
2022-07-27T01:00:19.681Z,55.26
2022-07-27T01:00:54.457Z,55.10
2022-07-27T01:01:26.726Z,55.31
2022-07-27T01:01:59.302Z,55.16
2022-07-27T01:02:34.320Z,54.96
2022-07-27T01:03:09.931Z,55.09
2022-07-27T01:03:42.591Z,54.97
2022-07-27T01:04:17.318Z,54.62
2022-07-27T01:04:49.459Z,54.90
2022-07-27T01:05:30.217Z,54.46
2022-07-27T01:06:11.802Z,54.42
2022-07-27T01:06:44.210Z,54.66
2022-07-27T01:07:17.009Z,54.70
2022-07-27T01:07:52.220Z,54.72
2022-07-27T01:08:25.492Z,54.38
2022-07-27T01:09:14.181Z,54.71
2022-07-27T01:10:01.301Z,54.21
2022-07-27T01:10:36.197Z,54.26
2022-07-27T01:11:08.698Z,54.49
2022-07-27T01:11:43.889Z,53.89
2022-07-27T01:12:17.775Z,54.08
2022-07-27T01:12:50.444Z,53.85
2022-07-27T01:13:26.512Z,54.02
2022-07-27T01:13:58.683Z,54.23
2022-07-27T01:14:30.995Z,54.13
2022-07-27T01:15:05.914Z,54.04
2022-07-27T01:15:38.473Z,54.37
2022-07-27T01:16:11.417Z,54.33
2022-07-27T01:16:47.339Z,54.19
2022-07-27T01:17:20.118Z,54.34
2022-07-27T01:17:52.240Z,54.29
2022-07-27T01:18:32.339Z,54.19
2022-07-27T01:19:04.570Z,54.48
2022-07-27T01:19:39.013Z,54.18
2022-07-27T01:20:14.226Z,54.29
2022-07-27T01:20:46.528Z,54.72
2022-07-27T01:21:18.715Z,54.96
2022-07-27T01:21:56.027Z,54.73
2022-07-27T01:22:28.308Z,54.88
2022-07-27T01:23:00.539Z,54.90
2022-07-27T01:23:36.180Z,54.89
2022-07-27T01:24:08.863Z,54.99
2022-07-27T01:24:41.016Z,55.59
2022-07-27T01:25:16.934Z,55.46
2022-07-27T01:25:49.116Z,55.61
2022-07-27T01:26:21.258Z,55.67
2022-07-27T01:26:56.239Z,55.28
2022-07-27T01:27:28.574Z,55.38
2022-07-27T01:28:00.773Z,55.71
2022-07-27T01:28:35.507Z,55.37
2022-07-27T01:29:07.754Z,55.88
2022-07-27T01:29:40.894Z,56.17
2022-07-27T01:30:31.307Z,56.31
2022-07-27T01:31:03.544Z,56.04
2022-07-27T01:31:35.775Z,55.56
2022-07-27T01:32:10.957Z,55.84
2022-07-27T01:32:43.158Z,55.71
2022-07-27T01:33:15.366Z,56.15
2022-07-27T01:33:47.502Z,55.97
2022-07-27T01:34:22.509Z,56.03
2022-07-27T01:34:54.707Z,56.65
2022-07-27T01:35:26.914Z,56.50
2022-07-27T01:36:01.657Z,56.34
2022-07-27T01:36:33.908Z,56.40
2022-07-27T01:37:08.793Z,56.86
2022-07-27T01:37:48.187Z,56.75
2022-07-27T01:38:21.423Z,57.03
2022-07-27T01:38:53.606Z,56.92
2022-07-27T01:39:28.347Z,57.21
2022-07-27T01:40:00.531Z,57.28
2022-07-27T01:40:34.208Z,57.17
2022-07-27T01:41:08.935Z,57.11
2022-07-27T01:41:41.136Z,57.78
2022-07-27T01:42:13.279Z,57.57
2022-07-27T01:42:47.979Z,57.37
2022-07-27T01:43:21.487Z,57.36
2022-07-27T01:43:53.734Z,57.53
2022-07-27T01:44:28.729Z,57.45
2022-07-27T01:45:00.899Z,57.71
2022-07-27T01:45:33.123Z,57.61
2022-07-27T01:46:07.955Z,57.60
2022-07-27T01:46:40.299Z,57.56
2022-07-27T01:47:14.733Z,57.53
2022-07-27T01:47:47.044Z,57.78
2022-07-27T01:48:21.803Z,58.00
2022-07-27T01:48:54.839Z,57.92
2022-07-27T01:49:27.164Z,57.91
2022-07-27T01:50:02.325Z,57.84
2022-07-27T01:50:34.718Z,57.65
2022-07-27T01:51:09.611Z,58.21
2022-07-27T01:51:41.817Z,57.65
2022-07-27T01:52:16.547Z,58.23
2022-07-27T01:52:51.306Z,57.78
2022-07-27T01:53:24.603Z,58.14
2022-07-27T01:53:56.867Z,58.28
2022-07-27T01:54:31.645Z,58.16
2022-07-27T01:55:04.395Z,58.12
2022-07-27T01:55:39.027Z,58.37
2022-07-27T01:56:15.246Z,57.91
2022-07-27T01:56:47.566Z,58.19
2022-07-27T01:57:20.660Z,58.53
2022-07-27T01:57:55.410Z,58.61
2022-07-27T01:58:27.681Z,58.55
2022-07-27T01:59:02.524Z,58.58
2022-07-27T01:59:34.780Z,58.37
2022-07-27T02:00:10.850Z,58.04
2022-07-27T02:00:48.655Z,58.37
2022-07-27T02:01:20.930Z,58.71
2022-07-27T02:01:55.766Z,58.60
2022-07-27T02:02:27.991Z,58.81
2022-07-27T02:03:00.197Z,58.59
2022-07-27T02:03:35.332Z,58.66
2022-07-27T02:04:07.610Z,58.65
2022-07-27T02:04:39.832Z,58.95
2022-07-27T02:05:14.629Z,58.46
2022-07-27T02:05:46.936Z,57.94
2022-07-27T02:06:19.191Z,57.88
2022-07-27T02:06:53.939Z,57.76
2022-07-27T02:07:28.829Z,57.70
2022-07-27T02:08:00.966Z,57.54
2022-07-27T02:08:36.505Z,57.52
2022-07-27T02:09:09.033Z,57.46
2022-07-27T02:09:41.514Z,57.40
2022-07-27T02:10:16.338Z,57.50
2022-07-27T02:11:04.177Z,57.84
2022-07-27T02:11:51.371Z,57.53
2022-07-27T02:12:38.803Z,57.68
2022-07-27T02:13:22.099Z,58.33
2022-07-27T02:13:54.964Z,58.19
2022-07-27T02:14:29.867Z,58.60
2022-07-27T02:15:05.969Z,58.20
2022-07-27T02:15:43.290Z,58.37
2022-07-27T02:16:20.407Z,58.00
2022-07-27T02:16:52.881Z,58.23
2022-07-27T02:17:25.597Z,58.32
2022-07-27T02:18:04.392Z,57.82
2022-07-27T02:18:56.555Z,57.68
2022-07-27T02:19:31.330Z,57.97
2022-07-27T02:20:05.002Z,57.95
2022-07-27T02:20:42.316Z,57.02
2022-07-27T02:21:17.189Z,57.10
2022-07-27T02:21:49.401Z,57.34
2022-07-27T02:22:21.668Z,56.53
2022-07-27T02:22:59.000Z,57.17
2022-07-27T02:23:32.106Z,56.51
2022-07-27T02:24:04.808Z,56.39
2022-07-27T02:24:40.383Z,56.39
2022-07-27T02:25:13.475Z,55.96
2022-07-27T02:25:45.742Z,56.16
2022-07-27T02:26:20.507Z,56.22
2022-07-27T02:26:52.995Z,55.94
2022-07-27T02:27:25.507Z,56.13
2022-07-27T02:28:00.272Z,56.31
2022-07-27T02:28:32.689Z,57.00
2022-07-27T02:29:05.517Z,57.94
2022-07-27T02:29:40.254Z,57.54
2022-07-27T02:30:13.891Z,57.53
2022-07-27T02:30:46.399Z,57.53
2022-07-27T02:31:21.274Z,57.84
2022-07-27T02:31:53.530Z,58.26
2022-07-27T02:32:25.786Z,58.41
2022-07-27T02:33:00.700Z,58.04
2022-07-27T02:33:33.589Z,58.49
2022-07-27T02:34:05.929Z,58.32
2022-07-27T02:34:40.725Z,57.79
2022-07-27T02:35:18.305Z,57.27
2022-07-27T02:35:52.306Z,56.53
2022-07-27T02:36:29.386Z,56.44
2022-07-27T02:37:01.765Z,55.81
2022-07-27T02:37:34.003Z,55.42
2022-07-27T02:38:14.409Z,55.23
2022-07-27T02:38:46.590Z,54.90
2022-07-27T02:39:18.916Z,54.70
2022-07-27T02:39:54.069Z,54.90
2022-07-27T02:40:26.430Z,55.10
2022-07-27T02:40:58.615Z,54.87
2022-07-27T02:41:33.401Z,54.20
2022-07-27T02:42:06.036Z,54.05
2022-07-27T02:42:40.827Z,54.03
2022-07-27T02:43:13.226Z,54.26
2022-07-27T02:43:45.391Z,54.30
2022-07-27T02:44:20.467Z,53.96
2022-07-27T02:44:52.937Z,54.01
2022-07-27T02:45:25.173Z,54.02
2022-07-27T02:46:00.049Z,53.94
2022-07-27T02:46:32.371Z,54.73
2022-07-27T02:47:07.396Z,54.74
2022-07-27T02:47:40.238Z,54.22
2022-07-27T02:48:12.432Z,53.86
2022-07-27T02:48:47.241Z,54.00
2022-07-27T02:49:19.450Z,53.78
2022-07-27T02:49:51.780Z,53.46
2022-07-27T02:50:26.768Z,53.65
2022-07-27T02:51:01.151Z,53.72
2022-07-27T02:51:36.367Z,53.89
2022-07-27T02:52:11.693Z,53.91
2022-07-27T02:52:43.892Z,53.72
2022-07-27T02:53:21.247Z,53.89
2022-07-27T02:53:53.471Z,53.86
2022-07-27T02:54:26.030Z,53.81
2022-07-27T02:55:00.814Z,53.92
2022-07-27T02:55:33.182Z,53.60
2022-07-27T02:56:08.227Z,53.97
2022-07-27T02:56:40.329Z,53.63
2022-07-27T02:57:15.132Z,53.57
2022-07-27T02:57:47.357Z,53.95
2022-07-27T02:58:19.556Z,53.77
2022-07-27T02:58:54.302Z,53.56
2022-07-27T02:59:26.783Z,53.80
2022-07-27T02:59:58.927Z,53.67
2022-07-27T03:00:34.312Z,53.48
2022-07-27T03:01:06.968Z,54.07
2022-07-27T03:01:39.402Z,53.72
2022-07-27T03:02:14.256Z,53.89
2022-07-27T03:02:48.856Z,53.77
2022-07-27T03:03:21.237Z,54.00
2022-07-27T03:03:56.084Z,54.19
2022-07-27T03:04:28.323Z,53.98
2022-07-27T03:05:00.459Z,53.93
2022-07-27T03:05:35.327Z,53.94
2022-07-27T03:06:08.364Z,54.19
2022-07-27T03:06:40.615Z,54.10
2022-07-27T03:07:15.344Z,54.45
2022-07-27T03:07:47.561Z,54.84
2022-07-27T03:08:22.410Z,54.96
2022-07-27T03:08:57.200Z,54.84
2022-07-27T03:09:33.425Z,54.71
2022-07-27T03:10:07.129Z,55.00
2022-07-27T03:10:41.939Z,54.59
2022-07-27T03:11:20.847Z,54.61
2022-07-27T03:11:53.115Z,55.10
2022-07-27T03:12:27.898Z,54.41
2022-07-27T03:13:00.243Z,54.43
2022-07-27T03:13:32.504Z,54.74
2022-07-27T03:14:07.596Z,54.70
2022-07-27T03:14:39.767Z,54.13
2022-07-27T03:15:12.329Z,54.31
2022-07-27T03:15:47.169Z,54.54
2022-07-27T03:16:19.449Z,54.91
2022-07-27T03:16:51.677Z,54.32
2022-07-27T03:17:26.427Z,53.98
2022-07-27T03:17:58.614Z,54.12
2022-07-27T03:18:30.719Z,53.88
2022-07-27T03:19:06.412Z,54.94
2022-07-27T03:19:38.545Z,54.36
2022-07-27T03:20:12.144Z,54.01
2022-07-27T03:20:44.515Z,53.48
2022-07-27T03:21:19.524Z,53.36
2022-07-27T03:21:53.761Z,53.49
2022-07-27T03:22:26.119Z,53.23
2022-07-27T03:23:00.939Z,53.49
2022-07-27T03:23:35.718Z,53.60
2022-07-27T03:24:08.362Z,53.87
2022-07-27T03:24:43.197Z,53.50
2022-07-27T03:25:15.319Z,53.71
2022-07-27T03:25:47.519Z,53.94
2022-07-27T03:26:22.642Z,53.75
2022-07-27T03:26:54.767Z,53.48
2022-07-27T03:27:27.130Z,53.65
2022-07-27T03:28:04.168Z,53.89
2022-07-27T03:28:37.221Z,53.83
2022-07-27T03:29:09.725Z,54.10
2022-07-27T03:29:44.628Z,53.89
2022-07-27T03:30:16.811Z,53.70
2022-07-27T03:30:49.083Z,54.00
2022-07-27T03:31:24.110Z,54.30
2022-07-27T03:31:56.316Z,54.28
2022-07-27T03:32:31.445Z,54.25
2022-07-27T03:33:03.696Z,54.65
2022-07-27T03:33:36.242Z,54.42
2022-07-27T03:34:10.943Z,54.42
2022-07-27T03:34:43.164Z,54.39
2022-07-27T03:35:15.669Z,54.73
2022-07-27T03:35:50.417Z,54.75
2022-07-27T03:36:25.351Z,54.64
2022-07-27T03:36:57.486Z,54.45
2022-07-27T03:37:29.703Z,54.73
2022-07-27T03:38:05.029Z,55.00
2022-07-27T03:38:39.825Z,54.94
2022-07-27T03:39:13.667Z,55.27
2022-07-27T03:39:48.945Z,55.49
2022-07-27T03:40:21.101Z,55.13
2022-07-27T03:40:53.315Z,55.52
2022-07-27T03:41:28.214Z,55.39
2022-07-27T03:42:00.388Z,55.00
2022-07-27T03:42:32.530Z,55.48
2022-07-27T03:43:07.360Z,55.30
2022-07-27T03:43:39.551Z,54.92
2022-07-27T03:44:11.716Z,54.88
2022-07-27T03:44:46.611Z,55.19
2022-07-27T03:45:19.524Z,55.02
2022-07-27T03:45:51.814Z,55.29
2022-07-27T03:46:26.712Z,55.17
2022-07-27T03:46:59.154Z,55.21
2022-07-27T03:47:33.921Z,55.36
2022-07-27T03:48:06.758Z,55.29
2022-07-27T03:48:42.046Z,55.00
2022-07-27T03:49:15.503Z,55.27
2022-07-27T03:49:47.994Z,55.09
2022-07-27T03:50:22.950Z,55.17
2022-07-27T03:50:55.164Z,55.21
2022-07-27T03:51:27.354Z,55.32
2022-07-27T03:52:02.221Z,55.17
2022-07-27T03:52:34.343Z,54.94
2022-07-27T03:53:06.569Z,54.63
2022-07-27T03:53:43.973Z,54.76
2022-07-27T03:54:17.949Z,54.84
2022-07-27T03:54:50.160Z,54.99
2022-07-27T03:55:25.801Z,54.79
2022-07-27T03:55:57.997Z,54.72
2022-07-27T03:56:30.176Z,54.89
2022-07-27T03:57:05.157Z,54.96
2022-07-27T03:57:37.633Z,54.92
2022-07-27T03:58:09.835Z,54.74
2022-07-27T03:58:44.613Z,54.88
2022-07-27T03:59:16.970Z,54.79
2022-07-27T03:59:49.189Z,54.73
2022-07-27T04:00:24.103Z,54.63
2022-07-27T04:00:56.407Z,54.50
2022-07-27T04:01:28.767Z,54.24
2022-07-27T04:02:03.686Z,54.71
2022-07-27T04:02:36.001Z,54.60
2022-07-27T04:03:10.904Z,54.64
2022-07-27T04:03:44.485Z,54.59
2022-07-27T04:04:16.758Z,54.19
2022-07-27T04:04:51.517Z,54.56
2022-07-27T04:05:23.668Z,54.61
2022-07-27T04:06:01.643Z,54.10
2022-07-27T04:06:36.398Z,54.14
2022-07-27T04:07:08.660Z,54.25
2022-07-27T04:07:41.036Z,53.68
2022-07-27T04:08:17.576Z,53.97
2022-07-27T04:08:57.504Z,53.70
2022-07-27T04:09:32.117Z,53.63
2022-07-27T04:10:07.422Z,53.36
2022-07-27T04:10:40.110Z,53.44
2022-07-27T04:11:16.579Z,53.56
2022-07-27T04:11:51.635Z,53.33
2022-07-27T04:12:26.772Z,53.53
2022-07-27T04:12:59.213Z,53.44
2022-07-27T04:13:31.398Z,53.18
2022-07-27T04:14:03.759Z,53.27
2022-07-27T04:14:38.563Z,53.67
2022-07-27T04:15:10.992Z,53.32
2022-07-27T04:15:43.209Z,53.37
2022-07-27T04:16:18.220Z,53.52
2022-07-27T04:16:50.474Z,53.77
2022-07-27T04:17:55.050Z,53.75
2022-07-27T04:18:17.586Z,53.72
2022-07-27T04:18:49.706Z,53.73
2022-07-27T04:19:22.093Z,53.60
2022-07-27T04:19:54.324Z,53.16
2022-07-27T04:20:29.382Z,53.04
2022-07-27T04:21:03.507Z,53.03
2022-07-27T04:21:35.632Z,52.87
2022-07-27T04:22:10.592Z,52.92
2022-07-27T04:22:42.737Z,52.69
2022-07-27T04:23:17.500Z,52.36
2022-07-27T04:23:52.258Z,52.25
2022-07-27T04:24:24.455Z,52.23
2022-07-27T04:24:59.287Z,52.74
2022-07-27T04:25:31.598Z,52.52
2022-07-27T04:26:04.104Z,52.98
2022-07-27T04:26:38.860Z,52.77
2022-07-27T04:27:11.097Z,52.61
2022-07-27T04:27:43.269Z,52.73
2022-07-27T04:28:18.019Z,52.55
2022-07-27T04:28:50.281Z,52.14
2022-07-27T04:29:22.890Z,52.47
2022-07-27T04:29:58.066Z,52.73
2022-07-27T04:30:30.209Z,52.34
2022-07-27T04:31:02.501Z,52.81
2022-07-27T04:31:37.755Z,52.61
2022-07-27T04:32:09.957Z,52.59
2022-07-27T04:32:42.259Z,52.38
2022-07-27T04:33:17.081Z,52.42
2022-07-27T04:33:49.317Z,52.86
2022-07-27T04:34:21.486Z,52.75
2022-07-27T04:34:56.212Z,52.91
2022-07-27T04:35:28.466Z,52.84
2022-07-27T04:36:00.629Z,53.14
2022-07-27T04:36:35.720Z,52.92
2022-07-27T04:37:07.887Z,52.99
2022-07-27T04:37:40.066Z,53.21
2022-07-27T04:38:32.437Z,53.07
2022-07-27T04:39:07.244Z,52.71
2022-07-27T04:39:39.545Z,52.84
2022-07-27T04:40:15.258Z,52.89
2022-07-27T04:40:47.375Z,52.55
2022-07-27T04:41:19.572Z,52.90
2022-07-27T04:41:54.271Z,52.65
2022-07-27T04:42:26.454Z,52.63
2022-07-27T04:42:58.779Z,52.45
2022-07-27T04:43:33.548Z,52.61
2022-07-27T04:44:05.902Z,52.01
2022-07-27T04:44:38.405Z,51.89
2022-07-27T04:45:14.073Z,51.85
2022-07-27T04:45:46.332Z,52.39
2022-07-27T04:46:18.638Z,52.11
2022-07-27T04:46:53.414Z,51.78
2022-07-27T04:47:25.695Z,52.12
2022-07-27T04:47:58.349Z,52.03
2022-07-27T04:48:33.187Z,52.04
2022-07-27T04:49:06.349Z,51.91
2022-07-27T04:49:38.561Z,51.60
2022-07-27T04:50:13.382Z,51.68
2022-07-27T04:50:47.240Z,51.25
2022-07-27T04:51:19.571Z,51.68
2022-07-27T04:51:54.335Z,51.73
2022-07-27T04:52:26.841Z,51.83
2022-07-27T04:53:01.095Z,51.91
2022-07-27T04:53:37.081Z,52.21
2022-07-27T04:54:28.606Z,52.00
2022-07-27T04:55:03.364Z,51.82
2022-07-27T04:55:35.869Z,52.32
2022-07-27T04:56:08.802Z,51.89
2022-07-27T04:56:43.487Z,51.83
2022-07-27T04:57:15.709Z,51.83
2022-07-27T04:57:48.283Z,51.67
2022-07-27T04:58:23.090Z,51.59
2022-07-27T04:58:55.578Z,51.88
2022-07-27T04:59:27.802Z,51.87
2022-07-27T05:00:02.512Z,51.96
2022-07-27T05:00:34.746Z,51.62
2022-07-27T05:01:07.135Z,52.00
2022-07-27T05:01:42.221Z,51.75
2022-07-27T05:02:14.538Z,51.65
2022-07-27T05:02:46.702Z,51.38
2022-07-27T05:03:21.558Z,51.10
2022-07-27T05:03:53.833Z,51.16
2022-07-27T05:04:26.069Z,51.68
2022-07-27T05:04:59.919Z,51.47
2022-07-27T05:05:34.902Z,51.57
2022-07-27T05:06:07.213Z,51.34
2022-07-27T05:06:42.007Z,51.61
2022-07-27T05:07:14.255Z,51.73
2022-07-27T05:07:46.475Z,51.50
2022-07-27T05:08:22.201Z,51.93
2022-07-27T05:08:54.419Z,51.35
2022-07-27T05:09:29.176Z,51.48
2022-07-27T05:10:04.040Z,51.28
2022-07-27T05:10:36.352Z,51.08
2022-07-27T05:11:08.487Z,51.54
2022-07-27T05:11:51.575Z,51.22
2022-07-27T05:12:24.459Z,51.67
2022-07-27T05:12:57.154Z,51.48
2022-07-27T05:13:31.947Z,51.79
2022-07-27T05:14:04.330Z,51.77
2022-07-27T05:14:36.522Z,51.76
2022-07-27T05:15:12.580Z,51.23
2022-07-27T05:15:54.800Z,51.64
2022-07-27T05:16:30.658Z,51.63
2022-07-27T05:17:02.883Z,51.61
2022-07-27T05:17:37.380Z,51.14
2022-07-27T05:18:12.106Z,51.28
2022-07-27T05:18:45.715Z,51.06
2022-07-27T05:19:17.894Z,51.15
2022-07-27T05:19:52.627Z,51.23
2022-07-27T05:20:25.298Z,50.77
2022-07-27T05:20:57.595Z,50.56
2022-07-27T05:21:32.496Z,50.47
2022-07-27T05:22:04.706Z,50.48
2022-07-27T05:22:39.732Z,50.44
2022-07-27T05:23:15.894Z,50.51
2022-07-27T05:23:48.111Z,50.62
2022-07-27T05:24:20.610Z,50.86
2022-07-27T05:24:57.921Z,50.44
2022-07-27T05:25:30.078Z,50.26
2022-07-27T05:26:05.564Z,50.39
2022-07-27T05:26:38.377Z,50.58
2022-07-27T05:27:10.616Z,50.66
2022-07-27T05:27:54.225Z,50.49
2022-07-27T05:28:27.014Z,50.45
2022-07-27T05:29:01.709Z,50.86
2022-07-27T05:29:34.611Z,50.47
2022-07-27T05:30:08.029Z,50.77
2022-07-27T05:30:43.027Z,50.38
2022-07-27T05:31:15.328Z,50.68
2022-07-27T05:31:47.639Z,50.50
2022-07-27T05:32:22.420Z,50.65
2022-07-27T05:32:54.858Z,50.95
2022-07-27T05:33:27.111Z,50.76
2022-07-27T05:34:01.887Z,50.41
2022-07-27T05:34:34.147Z,50.22
2022-07-27T05:35:07.971Z,50.17
2022-07-27T05:35:42.755Z,50.48
2022-07-27T05:36:14.941Z,50.51
2022-07-27T05:36:47.140Z,50.28
2022-07-27T05:37:22.080Z,50.20
2022-07-27T05:37:54.290Z,50.27
2022-07-27T05:38:26.550Z,50.46
2022-07-27T05:39:01.342Z,50.20
2022-07-27T05:39:33.658Z,50.86
2022-07-27T05:40:10.568Z,50.46
2022-07-27T05:40:46.973Z,50.46
2022-07-27T05:41:23.152Z,50.89
2022-07-27T05:41:55.392Z,50.84
2022-07-27T05:42:30.518Z,51.03
2022-07-27T05:43:02.643Z,50.95
2022-07-27T05:43:34.879Z,51.02
2022-07-27T05:44:09.667Z,51.10
2022-07-27T05:44:41.860Z,51.51
2022-07-27T05:45:15.770Z,51.49
2022-07-27T05:45:50.917Z,51.66
2022-07-27T05:46:24.735Z,51.36
2022-07-27T05:46:57.122Z,50.94
2022-07-27T05:47:31.966Z,50.81
2022-07-27T05:48:05.561Z,50.43
2022-07-27T05:48:37.814Z,50.50
2022-07-27T05:49:13.101Z,50.67
2022-07-27T05:49:45.527Z,50.35
2022-07-27T05:50:20.779Z,50.14
2022-07-27T05:50:53.145Z,50.06
2022-07-27T05:51:25.590Z,50.47
2022-07-27T05:52:00.910Z,50.17
2022-07-27T05:52:33.269Z,50.39
2022-07-27T05:53:06.144Z,49.98
2022-07-27T05:53:41.394Z,50.06
2022-07-27T05:54:13.611Z,50.00
2022-07-27T05:54:45.872Z,49.90
2022-07-27T05:55:23.845Z,49.83
2022-07-27T05:55:58.122Z,49.23
2022-07-27T05:56:31.954Z,49.74
2022-07-27T05:57:07.059Z,49.73
2022-07-27T05:57:41.366Z,49.51
2022-07-27T05:58:13.578Z,49.38
2022-07-27T05:58:48.305Z,49.56
2022-07-27T05:59:20.428Z,49.70
2022-07-27T05:59:54.738Z,49.58
2022-07-27T06:00:29.548Z,49.68
2022-07-27T06:01:01.906Z,49.75
2022-07-27T06:01:34.326Z,49.51
2022-07-27T06:02:09.187Z,49.32
2022-07-27T06:02:41.696Z,49.53
2022-07-27T06:03:13.843Z,48.97
2022-07-27T06:03:48.686Z,49.09
2022-07-27T06:04:20.866Z,49.04
2022-07-27T06:04:53.224Z,48.85
2022-07-27T06:05:28.354Z,48.84
2022-07-27T06:06:15.875Z,49.03
2022-07-27T06:07:03.055Z,48.79
2022-07-27T06:07:50.330Z,48.58
2022-07-27T06:08:22.635Z,48.67
2022-07-27T06:08:54.855Z,49.11
2022-07-27T06:09:29.610Z,48.91
2022-07-27T06:10:02.021Z,48.81
2022-07-27T06:10:41.326Z,48.33
2022-07-27T06:11:14.591Z,48.70
2022-07-27T06:11:46.783Z,48.58
2022-07-27T06:12:21.487Z,48.61
2022-07-27T06:13:03.442Z,48.51
2022-07-27T06:13:41.986Z,48.54
2022-07-27T06:14:14.766Z,48.45
2022-07-27T06:14:50.783Z,48.79
2022-07-27T06:15:26.650Z,48.40
2022-07-27T06:15:58.961Z,48.49
2022-07-27T06:16:32.154Z,48.25
2022-07-27T06:17:07.766Z,47.88
2022-07-27T06:17:40.036Z,48.15
2022-07-27T06:18:18.320Z,47.92
2022-07-27T06:18:50.676Z,48.01
2022-07-27T06:19:22.839Z,48.03
2022-07-27T06:19:57.615Z,48.41
2022-07-27T06:20:31.164Z,48.44
2022-07-27T06:21:03.643Z,48.43
2022-07-27T06:21:38.385Z,48.26
2022-07-27T06:22:10.519Z,48.06
2022-07-27T06:22:47.919Z,47.84
2022-07-27T06:23:22.704Z,48.32
2022-07-27T06:23:55.465Z,48.23
2022-07-27T06:24:27.587Z,47.80
2022-07-27T06:25:02.491Z,47.82
2022-07-27T06:25:37.397Z,47.80
2022-07-27T06:26:12.259Z,47.81
2022-07-27T06:26:44.649Z,47.86
2022-07-27T06:27:17.554Z,47.73
2022-07-27T06:27:53.279Z,47.70
2022-07-27T06:28:25.598Z,48.19
2022-07-27T06:29:01.499Z,47.97
2022-07-27T06:29:34.967Z,47.92
2022-07-27T06:30:09.287Z,47.72
2022-07-27T06:30:44.134Z,47.78
2022-07-27T06:31:16.501Z,47.64
2022-07-27T06:31:48.808Z,47.67
2022-07-27T06:32:23.625Z,47.56
2022-07-27T06:32:57.620Z,47.35
2022-07-27T06:33:34.045Z,47.31
2022-07-27T06:34:11.526Z,47.37
2022-07-27T06:34:44.048Z,47.27
2022-07-27T06:35:18.833Z,47.10
2022-07-27T06:35:51.174Z,46.94
2022-07-27T06:36:27.762Z,47.28
2022-07-27T06:37:00.322Z,46.75
2022-07-27T06:37:32.543Z,46.80
2022-07-27T06:38:07.235Z,46.95
2022-07-27T06:38:39.409Z,47.24
2022-07-27T06:39:14.789Z,47.15
2022-07-27T06:39:47.400Z,47.10
2022-07-27T06:40:26.269Z,46.88
2022-07-27T06:41:04.222Z,47.10
2022-07-27T06:41:38.914Z,47.17
2022-07-27T06:42:14.568Z,47.40
2022-07-27T06:42:46.905Z,47.04
2022-07-27T06:43:22.849Z,47.02
2022-07-27T06:43:55.059Z,47.22
2022-07-27T06:44:27.262Z,47.58
2022-07-27T06:45:02.025Z,47.39
2022-07-27T06:45:34.212Z,47.03
2022-07-27T06:46:12.794Z,47.14
2022-07-27T06:46:45.103Z,46.85
2022-07-27T06:47:17.437Z,46.90
2022-07-27T06:47:52.211Z,46.57
2022-07-27T06:48:24.881Z,46.56
2022-07-27T06:48:59.724Z,46.13
2022-07-27T06:49:31.985Z,46.16
2022-07-27T06:50:08.177Z,46.26
2022-07-27T06:50:40.438Z,46.15
2022-07-27T06:51:12.639Z,46.50
2022-07-27T06:51:47.740Z,45.95
2022-07-27T06:52:19.963Z,46.33
2022-07-27T06:52:52.687Z,45.91
2022-07-27T06:53:27.617Z,45.91
2022-07-27T06:53:59.812Z,45.62
2022-07-27T06:54:34.651Z,45.88
2022-07-27T06:55:07.707Z,45.73
2022-07-27T06:55:39.990Z,45.89
2022-07-27T06:56:17.383Z,45.07
2022-07-27T06:56:49.596Z,45.39
2022-07-27T06:57:21.911Z,45.68
2022-07-27T06:57:56.757Z,45.71
2022-07-27T06:58:28.918Z,45.27
2022-07-27T06:59:03.677Z,45.50
2022-07-27T06:59:42.665Z,45.40
2022-07-27T07:00:15.867Z,45.36
2022-07-27T07:00:50.685Z,45.23
2022-07-27T07:01:23.259Z,45.22
2022-07-27T07:01:55.455Z,44.74
2022-07-27T07:02:30.190Z,44.73
2022-07-27T07:03:04.138Z,45.10
2022-07-27T07:03:38.968Z,44.90
2022-07-27T07:04:11.458Z,45.36
2022-07-27T07:04:46.272Z,45.30
2022-07-27T07:05:18.579Z,45.26
2022-07-27T07:05:50.952Z,45.10
2022-07-27T07:06:26.413Z,44.69
2022-07-27T07:07:05.265Z,44.74
2022-07-27T07:07:41.862Z,44.66
2022-07-27T07:08:14.982Z,45.14
2022-07-27T07:08:47.287Z,44.80
2022-07-27T07:09:22.276Z,44.89
2022-07-27T07:09:54.518Z,44.64
2022-07-27T07:10:29.754Z,44.56
2022-07-27T07:11:02.390Z,44.77
2022-07-27T07:11:40.081Z,44.65
2022-07-27T07:12:12.427Z,44.14
2022-07-27T07:12:44.882Z,43.78
2022-07-27T07:13:19.942Z,43.58
2022-07-27T07:13:52.084Z,43.09
2022-07-27T07:14:27.271Z,42.89
2022-07-27T07:14:59.389Z,42.36
2022-07-27T07:15:32.653Z,42.37
2022-07-27T07:16:08.595Z,42.72
2022-07-27T07:16:40.884Z,42.56
2022-07-27T07:17:13.608Z,42.48
2022-07-27T07:17:48.391Z,42.17
2022-07-27T07:18:20.563Z,41.80